createdAt,value
2019-02-24T00:00:53.815Z,34.90
2019-02-24T00:03:22.282Z,34.40
2019-02-24T00:05:51.088Z,34.00
2019-02-24T00:08:19.692Z,33.90
2019-02-24T00:10:48.137Z,33.30
2019-02-24T00:13:16.619Z,33.00
2019-02-24T00:15:45.079Z,33.00
2019-02-24T00:18:13.584Z,32.30
2019-02-24T00:20:42.207Z,32.20
2019-02-24T00:23:10.726Z,31.30
2019-02-24T00:25:39.557Z,31.30
2019-02-24T00:28:08.034Z,31.10
2019-02-24T00:30:36.506Z,31.10
2019-02-24T00:33:04.999Z,31.20
2019-02-24T00:35:33.458Z,31.10
2019-02-24T00:38:01.987Z,30.70
2019-02-24T00:40:30.480Z,30.80
2019-02-24T00:42:58.944Z,30.70
2019-02-24T00:45:27.424Z,30.50
2019-02-24T00:47:56.191Z,30.10
2019-02-24T00:50:24.669Z,30.00
2019-02-24T00:52:53.587Z,30.10
2019-02-24T00:55:22.055Z,30.40
2019-02-24T00:57:50.541Z,30.50
2019-02-24T01:00:19.077Z,31.10
2019-02-24T01:02:47.576Z,30.30
2019-02-24T01:05:16.099Z,30.00
2019-02-24T01:07:45.183Z,29.90
2019-02-24T01:10:13.749Z,29.90
2019-02-24T01:12:42.551Z,30.10
2019-02-24T01:15:11.117Z,30.10
2019-02-24T01:17:39.571Z,31.00
2019-02-24T01:20:09.739Z,31.10
2019-02-24T01:22:38.285Z,30.90
2019-02-24T01:25:07.159Z,31.20
2019-02-24T01:27:35.718Z,31.00
2019-02-24T01:30:04.919Z,31.10
2019-02-24T01:32:33.688Z,31.60
2019-02-24T01:35:02.156Z,32.10
2019-02-24T01:37:30.635Z,32.50
2019-02-24T01:39:59.089Z,33.70
2019-02-24T01:42:27.572Z,33.80
2019-02-24T01:44:56.085Z,34.40
2019-02-24T01:47:24.865Z,35.00
2019-02-24T01:49:53.350Z,34.50
2019-02-24T01:52:21.836Z,34.50
2019-02-24T01:54:50.314Z,34.60
2019-02-24T01:57:18.785Z,34.60
2019-02-24T01:59:47.265Z,34.30
2019-02-24T02:02:15.767Z,34.00
2019-02-24T02:04:44.214Z,34.30
2019-02-24T02:07:12.708Z,34.40
2019-02-24T02:09:41.178Z,34.30
2019-02-24T02:12:09.901Z,35.10
2019-02-24T02:14:38.387Z,34.80
2019-02-24T02:17:06.849Z,36.50
2019-02-24T02:19:35.354Z,35.00
2019-02-24T02:22:03.876Z,35.00
2019-02-24T02:24:32.721Z,34.80
2019-02-24T02:27:01.217Z,35.90
2019-02-24T02:29:29.695Z,35.70
2019-02-24T02:31:58.168Z,35.70
2019-02-24T02:34:26.623Z,35.80
2019-02-24T02:36:55.107Z,38.00
2019-02-24T02:39:23.557Z,38.20
2019-02-24T02:41:52.053Z,37.50
2019-02-24T02:44:20.600Z,38.50
2019-02-24T02:46:49.144Z,36.90
2019-02-24T02:49:17.617Z,37.20
2019-02-24T02:51:46.088Z,37.20
2019-02-24T02:54:14.559Z,37.90
2019-02-24T02:56:43.019Z,38.30
2019-02-24T02:59:11.488Z,38.60
2019-02-24T03:01:39.962Z,38.70
2019-02-24T03:04:08.437Z,38.60
2019-02-24T03:06:38.535Z,38.30
2019-02-24T03:09:08.799Z,38.20
2019-02-24T03:11:37.351Z,38.60
2019-02-24T03:14:05.829Z,40.30
2019-02-24T03:16:34.307Z,40.30
2019-02-24T03:19:02.818Z,39.90
2019-02-24T03:21:31.313Z,39.60
2019-02-24T03:23:59.770Z,39.40
2019-02-24T03:26:28.662Z,39.10
2019-02-24T03:29:03.893Z,39.70
2019-02-24T03:31:27.423Z,38.50
2019-02-24T03:33:55.968Z,37.50
2019-02-24T03:36:24.553Z,37.70
2019-02-24T03:38:53.347Z,37.20
2019-02-24T03:41:21.968Z,39.20
2019-02-24T03:43:50.435Z,38.10
2019-02-24T03:46:18.927Z,38.80
2019-02-24T03:48:47.425Z,37.60
2019-02-24T03:51:16.017Z,38.70
2019-02-24T03:53:44.810Z,38.90
2019-02-24T03:56:13.360Z,38.70
2019-02-24T03:58:41.904Z,38.70
2019-02-24T04:01:10.361Z,38.50
2019-02-24T04:03:38.991Z,40.70
2019-02-24T04:06:07.444Z,39.40
2019-02-24T04:08:36.224Z,39.10
2019-02-24T04:11:04.676Z,40.70
2019-02-24T04:13:33.151Z,40.10
2019-02-24T04:16:01.627Z,38.70
2019-02-24T04:18:30.075Z,39.60
2019-02-24T04:20:58.566Z,39.80
2019-02-24T04:23:27.089Z,40.50
2019-02-24T04:25:55.712Z,39.30
2019-02-24T04:28:24.163Z,39.70
2019-02-24T04:30:52.651Z,40.30
2019-02-24T04:33:21.125Z,40.90
2019-02-24T04:35:49.607Z,41.10
2019-02-24T04:38:18.169Z,41.80
2019-02-24T04:40:46.666Z,40.90
2019-02-24T04:43:15.133Z,40.60
2019-02-24T04:45:43.617Z,39.80
2019-02-24T04:48:12.574Z,41.50
2019-02-24T04:50:41.028Z,39.90
2019-02-24T04:53:09.569Z,38.20
2019-02-24T04:55:38.021Z,39.80
2019-02-24T04:58:06.507Z,39.70
2019-02-24T05:00:34.967Z,40.20
2019-02-24T05:03:03.439Z,40.00
2019-02-24T05:05:31.893Z,41.00
2019-02-24T05:08:00.437Z,39.80
2019-02-24T05:10:29.188Z,40.60
2019-02-24T05:12:57.633Z,40.20
2019-02-24T05:15:26.134Z,39.10
2019-02-24T05:17:54.621Z,39.70
2019-02-24T05:20:23.112Z,39.80
2019-02-24T05:22:51.573Z,39.40
2019-02-24T05:25:20.034Z,39.70
2019-02-24T05:27:48.529Z,39.40
2019-02-24T05:30:16.988Z,40.10
2019-02-24T05:32:45.743Z,40.00
2019-02-24T05:35:14.269Z,39.10
2019-02-24T05:37:42.718Z,38.70
2019-02-24T05:40:11.210Z,39.40
2019-02-24T05:42:42.428Z,38.70
2019-02-24T05:45:10.428Z,38.20
2019-02-24T05:47:39.003Z,39.30
2019-02-24T05:50:07.578Z,40.00
2019-02-24T05:52:36.100Z,37.90
2019-02-24T05:55:06.118Z,37.90
2019-02-24T05:57:34.957Z,37.90
2019-02-24T06:00:03.943Z,38.20
2019-02-24T06:02:32.410Z,37.50
2019-02-24T06:05:00.891Z,36.10
2019-02-24T06:07:29.625Z,37.10
2019-02-24T06:09:58.118Z,37.00
2019-02-24T06:12:26.597Z,39.20
2019-02-24T06:14:55.077Z,38.80
2019-02-24T06:17:23.539Z,38.70
2019-02-24T06:19:51.989Z,40.10
2019-02-24T06:22:20.495Z,40.10
2019-02-24T06:24:48.958Z,39.80
2019-02-24T06:27:17.455Z,39.40
2019-02-24T06:29:45.945Z,39.00
2019-02-24T06:32:14.820Z,38.30
2019-02-24T06:34:43.323Z,38.50
2019-02-24T06:37:11.791Z,38.90
2019-02-24T06:39:40.287Z,38.00
2019-02-24T06:42:09.162Z,37.10
2019-02-24T06:44:37.705Z,38.00
2019-02-24T06:47:06.167Z,39.20
2019-02-24T06:49:34.674Z,39.50
2019-02-24T06:52:03.134Z,40.10
2019-02-24T06:54:31.664Z,41.00
2019-02-24T06:57:00.135Z,40.10
2019-02-24T06:59:28.731Z,39.40
2019-02-24T07:01:57.230Z,39.40
2019-02-24T07:04:25.722Z,39.50
2019-02-24T07:06:54.368Z,40.10
2019-02-24T07:09:22.959Z,40.30
2019-02-24T07:11:51.406Z,40.00
2019-02-24T07:14:19.852Z,40.50
2019-02-24T07:16:48.354Z,40.50
2019-02-24T07:19:17.186Z,40.50
2019-02-24T07:21:45.687Z,40.20
2019-02-24T07:24:14.146Z,40.20
2019-02-24T07:26:42.941Z,40.80
2019-02-24T07:29:11.452Z,41.90
2019-02-24T07:31:39.899Z,41.60
2019-02-24T07:34:08.380Z,41.20
2019-02-24T07:36:36.861Z,42.50
2019-02-24T07:39:05.387Z,43.30
2019-02-24T07:41:33.849Z,43.30
2019-02-24T07:44:02.380Z,43.70
2019-02-24T07:46:30.862Z,42.70
2019-02-24T07:48:59.319Z,41.50
2019-02-24T07:51:27.778Z,43.20
2019-02-24T07:53:56.555Z,42.70
2019-02-24T07:56:25.343Z,43.20
2019-02-24T07:58:53.798Z,44.00
2019-02-24T08:01:22.275Z,43.90
2019-02-24T08:03:50.992Z,42.90
2019-02-24T08:06:19.997Z,42.10
2019-02-24T08:08:48.441Z,39.50
2019-02-24T08:11:16.976Z,38.70
2019-02-24T08:13:45.446Z,37.60
2019-02-24T08:16:14.279Z,37.20
2019-02-24T08:18:49.334Z,36.90
2019-02-24T08:21:13.193Z,37.00
2019-02-24T08:23:41.728Z,36.40
2019-02-24T08:26:10.616Z,37.20
2019-02-24T08:28:39.133Z,36.50
2019-02-24T08:31:07.578Z,36.30
2019-02-24T08:33:36.077Z,36.20
2019-02-24T08:36:04.536Z,35.60
2019-02-24T08:38:33.019Z,35.60
2019-02-24T08:41:01.731Z,35.20
2019-02-24T08:43:30.237Z,35.50
2019-02-24T08:45:58.963Z,34.90
2019-02-24T08:48:27.753Z,34.60
2019-02-24T08:50:56.255Z,33.20
2019-02-24T08:53:24.779Z,32.40
2019-02-24T08:55:53.217Z,32.20
2019-02-24T08:58:21.765Z,32.10
2019-02-24T09:00:51.314Z,32.00
2019-02-24T09:03:20.174Z,31.60
2019-02-24T09:05:48.668Z,31.70
2019-02-24T09:08:17.200Z,31.70
2019-02-24T09:10:45.674Z,31.90
2019-02-24T09:13:14.139Z,32.10
2019-02-24T09:15:42.590Z,32.90
2019-02-24T09:18:11.101Z,32.80
2019-02-24T09:20:39.565Z,32.60
2019-02-24T09:23:08.025Z,32.30
2019-02-24T09:25:36.665Z,32.80
2019-02-24T09:28:05.120Z,32.10
2019-02-24T09:30:33.565Z,30.60
2019-02-24T09:33:02.044Z,31.10
2019-02-24T09:35:30.523Z,30.80
2019-02-24T09:37:58.970Z,31.60
2019-02-24T09:40:27.433Z,32.50
2019-02-24T09:42:55.958Z,32.00
2019-02-24T09:45:24.424Z,30.60
2019-02-24T09:47:52.933Z,30.50
2019-02-24T09:50:21.412Z,30.00
2019-02-24T09:52:49.873Z,30.00
2019-02-24T09:55:18.341Z,30.00
2019-02-24T09:57:46.820Z,31.20
2019-02-24T10:00:16.551Z,31.80
2019-02-24T10:02:46.753Z,32.50
2019-02-24T10:05:15.313Z,32.40
2019-02-24T10:07:43.768Z,31.90
2019-02-24T10:10:13.066Z,31.90
2019-02-24T10:12:41.783Z,32.90
2019-02-24T10:15:12.978Z,33.80
2019-02-24T10:17:41.513Z,33.50
2019-02-24T10:20:11.325Z,33.70
2019-02-24T10:22:39.854Z,33.10
2019-02-24T10:25:09.348Z,32.10
2019-02-24T10:27:37.833Z,31.30
2019-02-24T10:30:13.936Z,31.80
2019-02-24T10:32:42.401Z,31.90
2019-02-24T10:35:10.913Z,32.70
2019-02-24T10:37:39.395Z,33.30
2019-02-24T10:40:12.462Z,33.00
2019-02-24T10:42:41.214Z,32.70
2019-02-24T10:45:17.966Z,32.70
2019-02-24T10:47:46.405Z,33.20
2019-02-24T10:50:15.938Z,33.90
2019-02-24T10:52:44.445Z,34.80
2019-02-24T10:55:13.034Z,35.10
2019-02-24T10:57:41.600Z,34.30
2019-02-24T11:00:15.101Z,35.90
2019-02-24T11:02:43.576Z,35.70
2019-02-24T11:05:12.314Z,36.10
2019-02-24T11:07:40.771Z,35.50
2019-02-24T11:10:10.449Z,35.30
2019-02-24T11:12:38.964Z,35.30
2019-02-24T11:15:09.554Z,35.20
2019-02-24T11:17:38.099Z,34.90
2019-02-24T11:20:12.106Z,34.40
2019-02-24T11:22:40.949Z,34.10
2019-02-24T11:25:10.843Z,33.90
2019-02-24T11:27:39.376Z,33.40
2019-02-24T11:30:10.290Z,32.40
2019-02-24T11:32:39.073Z,31.30
2019-02-24T11:35:09.866Z,30.20
2019-02-24T11:37:38.359Z,30.90
2019-02-24T11:40:12.067Z,31.30
2019-02-24T11:42:40.521Z,31.40
2019-02-24T11:45:10.251Z,31.00
2019-02-24T11:47:38.708Z,31.00
2019-02-24T11:50:11.081Z,31.70
2019-02-24T11:52:39.627Z,31.60
2019-02-24T11:55:10.195Z,32.50
2019-02-24T11:57:38.926Z,31.90
2019-02-24T12:00:13.386Z,32.60
2019-02-24T12:02:42.076Z,33.20
2019-02-24T12:05:10.959Z,32.80
2019-02-24T12:07:39.421Z,32.60
2019-02-24T12:10:11.795Z,33.10
2019-02-24T12:12:40.417Z,33.40
2019-02-24T12:15:11.297Z,33.50
2019-02-24T12:17:39.830Z,34.20
2019-02-24T12:20:10.447Z,33.70
2019-02-24T12:22:38.897Z,34.00
2019-02-24T12:25:09.315Z,33.10
2019-02-24T12:27:37.763Z,33.00
2019-02-24T12:30:11.486Z,33.80
2019-02-24T12:32:39.964Z,33.70
2019-02-24T12:35:09.098Z,32.80
2019-02-24T12:37:37.550Z,31.90
2019-02-24T12:40:09.307Z,31.90
2019-02-24T12:42:37.786Z,32.30
2019-02-24T12:45:08.082Z,31.00
2019-02-24T12:47:36.851Z,32.30
2019-02-24T12:50:10.654Z,32.30
2019-02-24T12:52:39.111Z,32.10
2019-02-24T12:55:09.025Z,32.00
2019-02-24T12:57:37.578Z,30.70
2019-02-24T13:00:11.222Z,30.80
2019-02-24T13:02:39.758Z,31.00
2019-02-24T13:05:08.214Z,30.40
2019-02-24T13:07:36.718Z,30.50
2019-02-24T13:10:10.689Z,30.90
2019-02-24T13:12:39.137Z,29.60
2019-02-24T13:15:07.968Z,30.00
2019-02-24T13:17:36.432Z,28.70
2019-02-24T13:20:09.865Z,27.10
2019-02-24T13:22:38.463Z,27.60
2019-02-24T13:25:12.074Z,27.00
2019-02-24T13:27:40.540Z,27.00
2019-02-24T13:30:12.084Z,27.80
2019-02-24T13:32:40.837Z,27.80
2019-02-24T13:35:09.756Z,28.70
2019-02-24T13:37:38.232Z,28.70
2019-02-24T13:40:14.445Z,29.70
2019-02-24T13:42:42.967Z,29.90
2019-02-24T13:45:20.123Z,29.70
2019-02-24T13:47:48.578Z,29.70
2019-02-24T13:50:17.257Z,30.90
2019-02-24T13:52:45.867Z,29.00
2019-02-24T13:55:15.524Z,28.60
2019-02-24T13:57:44.012Z,28.60
2019-02-24T14:00:15.850Z,27.90
2019-02-24T14:02:44.309Z,28.30
2019-02-24T14:05:13.275Z,28.40
2019-02-24T14:07:41.823Z,28.90
2019-02-24T14:10:12.219Z,29.00
2019-02-24T14:12:40.685Z,29.80
2019-02-24T14:15:11.393Z,30.20
2019-02-24T14:17:39.965Z,30.00
2019-02-24T14:20:11.486Z,30.30
2019-02-24T14:22:39.949Z,29.20
2019-02-24T14:25:10.667Z,29.00
2019-02-24T14:27:39.141Z,29.20
2019-02-24T14:30:13.069Z,28.50
2019-02-24T14:32:41.505Z,28.60
2019-02-24T14:35:15.204Z,28.80
2019-02-24T14:37:43.741Z,29.30
2019-02-24T14:40:12.263Z,28.90
2019-02-24T14:42:40.759Z,28.70
2019-02-24T14:45:17.555Z,28.60
2019-02-24T14:47:46.312Z,28.80
2019-02-24T14:50:14.940Z,28.80
2019-02-24T14:52:43.469Z,29.10
2019-02-24T14:55:15.452Z,28.30
2019-02-24T14:57:44.005Z,28.20
2019-02-24T15:00:17.649Z,28.20
2019-02-24T15:02:46.401Z,29.20
2019-02-24T15:05:16.697Z,28.50
2019-02-24T15:07:45.571Z,28.40
2019-02-24T15:10:22.856Z,28.40
2019-02-24T15:12:51.328Z,28.40
2019-02-24T15:15:38.401Z,29.20
2019-02-24T15:18:06.987Z,29.40
2019-02-24T15:20:35.457Z,29.00
2019-02-24T15:23:03.910Z,29.20
2019-02-24T15:25:32.382Z,29.60
2019-02-24T15:28:00.843Z,29.60
2019-02-24T15:30:34.828Z,29.70
2019-02-24T15:33:03.371Z,30.10
2019-02-24T15:35:32.173Z,29.20
2019-02-24T15:38:00.991Z,28.90
2019-02-24T15:40:29.471Z,28.60
2019-02-24T15:42:57.956Z,28.90
2019-02-24T15:45:26.743Z,29.00
2019-02-24T15:47:55.207Z,28.20
2019-02-24T15:50:23.691Z,28.70
2019-02-24T15:52:52.223Z,27.60
2019-02-24T15:55:20.716Z,27.00
2019-02-24T15:57:49.194Z,27.50
2019-02-24T16:00:22.045Z,27.10
2019-02-24T16:02:50.526Z,27.40
2019-02-24T16:05:21.903Z,28.20
2019-02-24T16:07:50.368Z,27.90
2019-02-24T16:10:23.058Z,26.80
2019-02-24T16:12:51.547Z,27.70
2019-02-24T16:15:25.094Z,26.60
2019-02-24T16:17:53.565Z,25.50
2019-02-24T16:20:36.012Z,25.20
2019-02-24T16:23:04.467Z,24.70
2019-02-24T16:25:32.933Z,24.10
2019-02-24T16:28:01.471Z,24.70
2019-02-24T16:30:30.071Z,24.90
2019-02-24T16:32:58.515Z,24.30
2019-02-24T16:35:26.994Z,24.00
2019-02-24T16:37:55.443Z,24.80
2019-02-24T16:40:25.748Z,25.60
2019-02-24T16:42:54.226Z,26.60
2019-02-24T16:45:22.674Z,26.80
2019-02-24T16:47:51.202Z,27.40
2019-02-24T16:50:21.939Z,27.70
2019-02-24T16:52:50.423Z,29.00
2019-02-24T16:55:19.257Z,29.40
2019-02-24T16:57:47.721Z,29.90
2019-02-24T17:00:19.267Z,30.20
2019-02-24T17:02:47.833Z,30.30
2019-02-24T17:05:16.763Z,30.90
2019-02-24T17:07:45.632Z,31.20
2019-02-24T17:10:25.967Z,30.90
2019-02-24T17:12:54.464Z,31.90
2019-02-24T17:15:23.401Z,31.00
2019-02-24T17:17:51.855Z,30.70
2019-02-24T17:20:25.675Z,31.10
2019-02-24T17:22:54.157Z,30.40
2019-02-24T17:25:22.615Z,30.40
2019-02-24T17:27:51.144Z,31.10
2019-02-24T17:30:19.751Z,31.60
2019-02-24T17:32:48.285Z,32.00
2019-02-24T17:35:16.761Z,33.40
2019-02-24T17:37:45.282Z,35.00
2019-02-24T17:40:19.649Z,35.80
2019-02-24T17:42:48.317Z,36.00
2019-02-24T17:45:16.855Z,34.90
2019-02-24T17:47:45.390Z,35.50
2019-02-24T17:50:15.406Z,36.10
2019-02-24T17:52:43.932Z,36.90
2019-02-24T17:55:16.639Z,36.50
2019-02-24T17:57:45.225Z,36.60
2019-02-24T18:00:21.252Z,35.90
2019-02-24T18:02:49.955Z,36.70
2019-02-24T18:05:18.523Z,38.00
2019-02-24T18:07:47.225Z,38.50
2019-02-24T18:10:15.774Z,37.90
2019-02-24T18:12:44.236Z,38.30
2019-02-24T18:15:13.159Z,36.60
2019-02-24T18:17:41.604Z,34.40
2019-02-24T18:20:12.905Z,35.80
2019-02-24T18:22:41.359Z,36.90
2019-02-24T18:25:11.578Z,37.50
2019-02-24T18:27:40.060Z,38.20
2019-02-24T18:30:26.657Z,35.20
2019-02-24T18:32:55.213Z,33.70
2019-02-24T18:35:23.709Z,32.70
2019-02-24T18:37:52.156Z,34.20
2019-02-24T18:40:20.769Z,32.80
2019-02-24T18:42:49.228Z,31.60
2019-02-24T18:45:17.692Z,32.30
2019-02-24T18:47:46.160Z,32.00
2019-02-24T18:50:16.375Z,30.70
2019-02-24T18:52:44.867Z,30.90
2019-02-24T18:55:13.679Z,30.40
2019-02-24T18:57:42.220Z,30.10
2019-02-24T19:00:22.907Z,30.00
2019-02-24T19:02:51.370Z,30.50
2019-02-24T19:05:19.954Z,29.70
2019-02-24T19:07:48.431Z,29.00
2019-02-24T19:10:21.547Z,28.90
2019-02-24T19:12:50.276Z,28.60
2019-02-24T19:15:20.176Z,29.20
2019-02-24T19:17:48.921Z,29.40
2019-02-24T19:20:19.479Z,29.20
2019-02-24T19:22:48.068Z,30.00
2019-02-24T19:25:16.724Z,29.60
2019-02-24T19:27:45.342Z,29.90
2019-02-24T19:30:16.277Z,31.40
2019-02-24T19:32:45.095Z,32.50
2019-02-24T19:35:14.796Z,32.10
2019-02-24T19:37:43.960Z,34.00
2019-02-24T19:40:18.102Z,34.20
2019-02-24T19:42:46.635Z,31.30
2019-02-24T19:45:20.029Z,31.00
2019-02-24T19:47:48.465Z,29.10
2019-02-24T19:50:17.758Z,30.00
2019-02-24T19:52:46.307Z,30.40
2019-02-24T19:55:15.813Z,29.50
2019-02-24T19:57:44.367Z,29.40
2019-02-24T20:00:24.159Z,28.30
2019-02-24T20:02:52.790Z,28.60
2019-02-24T20:05:21.780Z,28.50
2019-02-24T20:07:50.304Z,28.70
2019-02-24T20:10:21.029Z,30.00
2019-02-24T20:12:49.947Z,29.80
2019-02-24T20:15:18.483Z,30.30
2019-02-24T20:17:46.953Z,30.70
2019-02-24T20:20:16.654Z,31.20
2019-02-24T20:22:45.165Z,31.60
2019-02-24T20:25:15.733Z,31.10
2019-02-24T20:27:44.214Z,31.10
2019-02-24T20:30:27.509Z,29.50
2019-02-24T20:32:55.987Z,29.10
2019-02-24T20:35:24.449Z,28.20
2019-02-24T20:37:53.040Z,27.80
2019-02-24T20:40:21.893Z,27.30
2019-02-24T20:42:50.421Z,27.00
2019-02-24T20:45:22.793Z,27.00
2019-02-24T20:47:51.330Z,25.70
2019-02-24T20:50:25.719Z,25.60
2019-02-24T20:52:54.530Z,23.60
2019-02-24T20:55:23.422Z,22.70
2019-02-24T20:57:51.989Z,21.50
2019-02-24T21:00:26.206Z,21.80
2019-02-24T21:02:54.663Z,21.10
2019-02-24T21:05:23.153Z,19.40
2019-02-24T21:07:51.611Z,18.00
2019-02-24T21:10:20.116Z,18.20
2019-02-24T21:12:48.598Z,17.90
2019-02-24T21:15:17.988Z,17.70
2019-02-24T21:17:46.451Z,18.30
2019-02-24T21:20:19.953Z,17.80
2019-02-24T21:22:50.491Z,17.50
2019-02-24T21:25:19.133Z,17.40
2019-02-24T21:27:47.583Z,18.00
2019-02-24T21:30:17.956Z,17.00
2019-02-24T21:32:46.414Z,17.20
2019-02-24T21:35:17.174Z,17.30
2019-02-24T21:37:45.309Z,17.00
2019-02-24T21:40:16.873Z,17.00
2019-02-24T21:42:45.387Z,17.20
2019-02-24T21:45:16.376Z,18.10
2019-02-24T21:47:45.091Z,18.50
2019-02-24T21:50:16.243Z,19.20
2019-02-24T21:52:44.870Z,18.70
2019-02-24T21:55:13.592Z,18.60
2019-02-24T21:57:42.112Z,18.10
2019-02-24T22:00:13.499Z,18.90
2019-02-24T22:02:42.052Z,18.80
2019-02-24T22:05:11.843Z,19.30
2019-02-24T22:07:40.337Z,19.60
2019-02-24T22:10:11.799Z,20.00
2019-02-24T22:12:40.325Z,20.10
2019-02-24T22:15:14.228Z,19.90
2019-02-24T22:17:42.693Z,20.90
2019-02-24T22:20:11.641Z,20.50
2019-02-24T22:22:40.353Z,20.70
2019-02-24T22:25:11.041Z,21.40
2019-02-24T22:27:39.509Z,22.00
2019-02-24T22:30:11.206Z,22.10
2019-02-24T22:32:39.650Z,21.90
2019-02-24T22:35:09.264Z,22.60
2019-02-24T22:37:37.797Z,24.60
2019-02-24T22:40:09.617Z,25.10
2019-02-24T22:42:38.146Z,24.80
2019-02-24T22:45:09.916Z,25.70
2019-02-24T22:47:38.788Z,26.30
2019-02-24T22:50:09.551Z,26.80
2019-02-24T22:52:38.017Z,27.30
2019-02-24T22:55:11.618Z,27.10
2019-02-24T22:57:40.080Z,27.20
2019-02-24T23:00:52.678Z,27.30
2019-02-24T23:03:29.835Z,27.20
2019-02-24T23:05:58.775Z,26.90
2019-02-24T23:08:27.543Z,27.20
2019-02-24T23:10:56.067Z,27.60
2019-02-24T23:13:24.612Z,28.50
2019-02-24T23:15:53.121Z,28.50
2019-02-24T23:18:21.658Z,28.70
2019-02-24T23:20:50.117Z,28.60
2019-02-24T23:23:18.577Z,29.40
2019-02-24T23:25:47.051Z,30.20
2019-02-24T23:28:15.612Z,30.90
2019-02-24T23:30:44.492Z,32.30
2019-02-24T23:33:12.930Z,32.80
2019-02-24T23:35:41.407Z,33.20
2019-02-24T23:38:10.123Z,33.50
2019-02-24T23:40:38.610Z,33.40
2019-02-24T23:43:07.132Z,33.30
2019-02-24T23:45:35.669Z,33.70
2019-02-24T23:48:04.217Z,33.30
2019-02-24T23:50:32.959Z,34.00
2019-02-24T23:53:01.415Z,34.10
2019-02-24T23:55:30.225Z,34.30
2019-02-24T23:57:59.069Z,34.10
